Ana Sayfa
METAR-TAF:

METAR-TAF

Havaalanları :

Pattani, Tayland

Enlem: 06-47-08N, Boylam: 101-09-13E, yükseklik: 2 m

METAR: eksik

Saat: 17:13 (10:13 UTC)

Tahmin

Rapor saat 05:00 UTC de 5 saat ve 13 dakika önce yapıldı.
Ayın 25'si saat 06 UTC'den ayın 26'si saat 06 UTC'ye kadar geçerli Tahmin
Rüzgar doğudan 10 kt
Görüş mesafesi 10 km veya daha fazla
2000 ft yükseklikte parçalı bulutlu
Dönüşüyor
ayın 25'si saat 13 UTC'den ayın 25'si saat 15 UTC'ye kadar
Rüzgar güney/güneydoğudan 4 kt
Olasılık 40% :
Geçici
ayın 25'si saat 22 UTC'den ayın 26'si saat 04 UTC'ye kadar
Görüş mesafesi: 5000 m
1500 ft yükseklikte parçalı bulutlu
10000 ft yükseklikte parçalı çok bulutlu
yağmur
Dönüşüyor
ayın 26'si saat 04 UTC'den ayın 26'si saat 06 UTC'ye kadar
Rüzgar doğudan 10 kt

TAF: VTSK 250500Z 2506/2606 08010KT 9999 SCT020 BECMG 2513/2515 16004KT PROB40 TEMPO 2522/2604 5000 RA SCT015 BKN100 BECMG 2604/2606 08010KT

4.000'den fazla havaalanı için hava durumu gözlemleri ve tahminleri (METAR ve TAF raporları).

Kullanılabilir istasyonlar harita üzerinde sarı ve kırmızı noktalarla gösterilir.

İstasyonun adını görmek için fareyi noktanın üzerinde gezdirin.

Sonrasında hava gözlem ve tahminlerini görmek için tıklayın.

Haritayı değiştirmek için: yaklaştırmak için siyah artı işaretli yeşil düğmeye ve uzaklaştırmak için de eksi işaretli düğmeye hızla tıklayın; bitişik haritalar için yeşil okları kullanın.


METAR-TAF: